sensor_id;sensor_type;location;lat;lon;timestamp;temperature;humidity
33865;DHT22;20159;51.072;13.526;2023-03-19T00:01:57;9.90;71.50
33865;DHT22;20159;51.072;13.526;2023-03-19T00:04:24;9.90;71.80
33865;DHT22;20159;51.072;13.526;2023-03-19T00:06:50;9.80;72.00
33865;DHT22;20159;51.072;13.526;2023-03-19T00:09:16;9.70;72.10
33865;DHT22;20159;51.072;13.526;2023-03-19T00:11:42;9.70;72.20
33865;DHT22;20159;51.072;13.526;2023-03-19T00:14:08;9.70;72.40
33865;DHT22;20159;51.072;13.526;2023-03-19T00:16:33;9.70;72.50
33865;DHT22;20159;51.072;13.526;2023-03-19T00:18:59;9.60;72.70
33865;DHT22;20159;51.072;13.526;2023-03-19T00:21:25;9.60;72.80
33865;DHT22;20159;51.072;13.526;2023-03-19T00:23:51;9.60;73.00
33865;DHT22;20159;51.072;13.526;2023-03-19T00:26:17;9.60;73.20
33865;DHT22;20159;51.072;13.526;2023-03-19T00:28:42;9.50;73.20
33865;DHT22;20159;51.072;13.526;2023-03-19T00:31:10;9.50;73.20
33865;DHT22;20159;51.072;13.526;2023-03-19T00:33:37;9.50;73.60
33865;DHT22;20159;51.072;13.526;2023-03-19T00:36:03;9.40;73.50
33865;DHT22;20159;51.072;13.526;2023-03-19T00:38:28;9.40;73.70
33865;DHT22;20159;51.072;13.526;2023-03-19T00:40:54;9.40;73.80
33865;DHT22;20159;51.072;13.526;2023-03-19T00:43:20;9.30;74.30
33865;DHT22;20159;51.072;13.526;2023-03-19T00:45:45;9.30;73.90
33865;DHT22;20159;51.072;13.526;2023-03-19T00:48:11;9.20;74.00
33865;DHT22;20159;51.072;13.526;2023-03-19T00:50:36;9.20;74.20
33865;DHT22;20159;51.072;13.526;2023-03-19T00:53:02;9.10;74.30
33865;DHT22;20159;51.072;13.526;2023-03-19T00:55:27;9.10;74.40
33865;DHT22;20159;51.072;13.526;2023-03-19T00:57:53;9.10;74.50
33865;DHT22;20159;51.072;13.526;2023-03-19T01:00:18;9.00;74.50
33865;DHT22;20159;51.072;13.526;2023-03-19T01:02:44;9.00;74.70
33865;DHT22;20159;51.072;13.526;2023-03-19T01:05:10;9.00;75.00
33865;DHT22;20159;51.072;13.526;2023-03-19T01:07:36;9.00;75.00
33865;DHT22;20159;51.072;13.526;2023-03-19T01:10:01;8.90;75.20
33865;DHT22;20159;51.072;13.526;2023-03-19T01:12:27;8.90;75.40
33865;DHT22;20159;51.072;13.526;2023-03-19T01:14:52;8.90;75.60
33865;DHT22;20159;51.072;13.526;2023-03-19T01:17:18;8.90;75.70
33865;DHT22;20159;51.072;13.526;2023-03-19T01:19:43;8.80;75.80
33865;DHT22;20159;51.072;13.526;2023-03-19T01:22:09;8.80;75.70
33865;DHT22;20159;51.072;13.526;2023-03-19T01:24:34;8.80;75.80
33865;DHT22;20159;51.072;13.526;2023-03-19T01:27:00;8.80;75.80
33865;DHT22;20159;51.072;13.526;2023-03-19T01:29:26;8.70;75.90
33865;DHT22;20159;51.072;13.526;2023-03-19T01:31:51;8.70;76.00
33865;DHT22;20159;51.072;13.526;2023-03-19T01:34:16;8.60;76.00
33865;DHT22;20159;51.072;13.526;2023-03-19T01:36:42;8.60;76.20
33865;DHT22;20159;51.072;13.526;2023-03-19T01:39:08;8.60;76.40
33865;DHT22;20159;51.072;13.526;2023-03-19T01:41:34;8.50;76.40
33865;DHT22;20159;51.072;13.526;2023-03-19T01:44:00;8.50;76.60
33865;DHT22;20159;51.072;13.526;2023-03-19T01:46:33;8.40;76.70
33865;DHT22;20159;51.072;13.526;2023-03-19T01:49:03;8.40;76.80
33865;DHT22;20159;51.072;13.526;2023-03-19T01:51:38;8.30;77.00
33865;DHT22;20159;51.072;13.526;2023-03-19T01:54:08;8.30;77.70
33865;DHT22;20159;51.072;13.526;2023-03-19T01:56:37;8.20;77.40
33865;DHT22;20159;51.072;13.526;2023-03-19T01:59:10;8.20;77.50
33865;DHT22;20159;51.072;13.526;2023-03-19T02:01:42;8.20;77.70
33865;DHT22;20159;51.072;13.526;2023-03-19T02:04:10;8.20;77.70
33865;DHT22;20159;51.072;13.526;2023-03-19T02:06:36;8.20;77.80
33865;DHT22;20159;51.072;13.526;2023-03-19T02:09:02;8.10;78.00
33865;DHT22;20159;51.072;13.526;2023-03-19T02:11:28;8.10;78.20
33865;DHT22;20159;51.072;13.526;2023-03-19T02:13:53;8.10;78.30
33865;DHT22;20159;51.072;13.526;2023-03-19T02:16:19;8.10;78.40
33865;DHT22;20159;51.072;13.526;2023-03-19T02:18:46;8.10;78.70
33865;DHT22;20159;51.072;13.526;2023-03-19T02:21:16;8.10;79.00
33865;DHT22;20159;51.072;13.526;2023-03-19T02:23:49;8.10;79.30
33865;DHT22;20159;51.072;13.526;2023-03-19T02:26:19;8.10;79.30
33865;DHT22;20159;51.072;13.526;2023-03-19T02:28:47;8.10;79.30
33865;DHT22;20159;51.072;13.526;2023-03-19T02:31:14;8.10;79.20
33865;DHT22;20159;51.072;13.526;2023-03-19T02:33:40;8.20;79.10
33865;DHT22;20159;51.072;13.526;2023-03-19T02:36:09;8.20;79.00
33865;DHT22;20159;51.072;13.526;2023-03-19T02:38:38;8.20;79.10
33865;DHT22;20159;51.072;13.526;2023-03-19T02:41:07;8.20;78.90
33865;DHT22;20159;51.072;13.526;2023-03-19T02:43:35;8.30;78.60
33865;DHT22;20159;51.072;13.526;2023-03-19T02:46:03;8.30;78.60
33865;DHT22;20159;51.072;13.526;2023-03-19T02:48:28;8.30;78.90
33865;DHT22;20159;51.072;13.526;2023-03-19T02:50:54;8.40;79.00
33865;DHT22;20159;51.072;13.526;2023-03-19T02:53:20;8.40;78.80
33865;DHT22;20159;51.072;13.526;2023-03-19T02:55:46;8.50;78.90
33865;DHT22;20159;51.072;13.526;2023-03-19T02:58:11;8.50;78.80
33865;DHT22;20159;51.072;13.526;2023-03-19T03:00:37;8.40;78.80
33865;DHT22;20159;51.072;13.526;2023-03-19T03:03:04;8.40;78.70
33865;DHT22;20159;51.072;13.526;2023-03-19T03:05:31;8.40;78.80
33865;DHT22;20159;51.072;13.526;2023-03-19T03:07:56;8.40;78.70
33865;DHT22;20159;51.072;13.526;2023-03-19T03:10:22;8.40;78.90
33865;DHT22;20159;51.072;13.526;2023-03-19T03:12:47;8.30;79.00
33865;DHT22;20159;51.072;13.526;2023-03-19T03:15:13;8.40;79.10
33865;DHT22;20159;51.072;13.526;2023-03-19T03:17:39;8.30;79.00
33865;DHT22;20159;51.072;13.526;2023-03-19T03:20:06;8.30;79.10
33865;DHT22;20159;51.072;13.526;2023-03-19T03:22:34;8.30;79.20
33865;DHT22;20159;51.072;13.526;2023-03-19T03:25:00;8.30;79.40
33865;DHT22;20159;51.072;13.526;2023-03-19T03:27:25;8.30;79.50
33865;DHT22;20159;51.072;13.526;2023-03-19T03:29:51;8.30;79.70
33865;DHT22;20159;51.072;13.526;2023-03-19T03:32:17;8.30;79.90
33865;DHT22;20159;51.072;13.526;2023-03-19T03:34:42;8.30;79.60
33865;DHT22;20159;51.072;13.526;2023-03-19T03:37:10;8.30;79.60
33865;DHT22;20159;51.072;13.526;2023-03-19T03:39:35;8.30;79.40
33865;DHT22;20159;51.072;13.526;2023-03-19T03:42:02;8.30;79.10
33865;DHT22;20159;51.072;13.526;2023-03-19T03:44:27;8.40;79.10
33865;DHT22;20159;51.072;13.526;2023-03-19T03:46:53;8.40;78.90
33865;DHT22;20159;51.072;13.526;2023-03-19T03:49:18;8.60;79.10
33865;DHT22;20159;51.072;13.526;2023-03-19T03:51:44;8.50;79.20
33865;DHT22;20159;51.072;13.526;2023-03-19T03:54:10;8.50;79.10
33865;DHT22;20159;51.072;13.526;2023-03-19T03:56:36;8.60;78.70
33865;DHT22;20159;51.072;13.526;2023-03-19T03:59:01;8.60;78.60
33865;DHT22;20159;51.072;13.526;2023-03-19T04:01:27;8.60;78.50
33865;DHT22;20159;51.072;13.526;2023-03-19T04:03:53;8.70;78.60
33865;DHT22;20159;51.072;13.526;2023-03-19T04:06:21;8.70;78.70
33865;DHT22;20159;51.072;13.526;2023-03-19T04:08:47;8.80;78.90
33865;DHT22;20159;51.072;13.526;2023-03-19T04:11:13;8.80;79.20
33865;DHT22;20159;51.072;13.526;2023-03-19T04:13:38;8.80;78.30
33865;DHT22;20159;51.072;13.526;2023-03-19T04:16:05;8.90;78.10
33865;DHT22;20159;51.072;13.526;2023-03-19T04:18:31;8.90;77.70
33865;DHT22;20159;51.072;13.526;2023-03-19T04:20:56;8.90;77.70
33865;DHT22;20159;51.072;13.526;2023-03-19T04:23:23;9.00;78.10
33865;DHT22;20159;51.072;13.526;2023-03-19T04:25:48;8.90;78.00
33865;DHT22;20159;51.072;13.526;2023-03-19T04:28:14;9.00;77.90
33865;DHT22;20159;51.072;13.526;2023-03-19T04:30:40;9.00;77.90
33865;DHT22;20159;51.072;13.526;2023-03-19T04:33:08;9.00;77.60
33865;DHT22;20159;51.072;13.526;2023-03-19T04:35:34;9.00;77.50
33865;DHT22;20159;51.072;13.526;2023-03-19T04:37:59;9.10;77.60
33865;DHT22;20159;51.072;13.526;2023-03-19T04:40:25;9.10;77.60
33865;DHT22;20159;51.072;13.526;2023-03-19T04:42:50;9.00;77.60
33865;DHT22;20159;51.072;13.526;2023-03-19T04:45:17;9.00;77.30
33865;DHT22;20159;51.072;13.526;2023-03-19T04:47:42;9.00;77.20
33865;DHT22;20159;51.072;13.526;2023-03-19T04:50:08;9.00;77.00
33865;DHT22;20159;51.072;13.526;2023-03-19T04:52:34;9.00;77.50
33865;DHT22;20159;51.072;13.526;2023-03-19T04:55:02;8.90;77.10
33865;DHT22;20159;51.072;13.526;2023-03-19T04:57:28;9.00;77.20
33865;DHT22;20159;51.072;13.526;2023-03-19T04:59:53;8.90;77.20
33865;DHT22;20159;51.072;13.526;2023-03-19T05:02:19;9.00;77.50
33865;DHT22;20159;51.072;13.526;2023-03-19T05:04:45;8.80;77.50
33865;DHT22;20159;51.072;13.526;2023-03-19T05:07:10;8.70;77.30
33865;DHT22;20159;51.072;13.526;2023-03-19T05:09:36;8.70;77.20
33865;DHT22;20159;51.072;13.526;2023-03-19T05:12:01;8.70;76.90
33865;DHT22;20159;51.072;13.526;2023-03-19T05:14:27;8.60;76.80
33865;DHT22;20159;51.072;13.526;2023-03-19T05:16:52;8.60;76.80
33865;DHT22;20159;51.072;13.526;2023-03-19T05:19:18;8.50;76.80
33865;DHT22;20159;51.072;13.526;2023-03-19T05:21:44;8.40;76.90
33865;DHT22;20159;51.072;13.526;2023-03-19T05:24:09;8.40;77.00
33865;DHT22;20159;51.072;13.526;2023-03-19T05:26:35;8.40;77.00
33865;DHT22;20159;51.072;13.526;2023-03-19T05:29:02;8.30;77.10
33865;DHT22;20159;51.072;13.526;2023-03-19T05:31:27;8.30;77.20
33865;DHT22;20159;51.072;13.526;2023-03-19T05:33:53;8.20;77.30
33865;DHT22;20159;51.072;13.526;2023-03-19T05:36:18;8.20;77.40
33865;DHT22;20159;51.072;13.526;2023-03-19T05:38:44;8.20;77.50
33865;DHT22;20159;51.072;13.526;2023-03-19T05:41:09;8.20;77.60
33865;DHT22;20159;51.072;13.526;2023-03-19T05:43:35;8.10;77.70
33865;DHT22;20159;51.072;13.526;2023-03-19T05:46:01;8.20;77.80
33865;DHT22;20159;51.072;13.526;2023-03-19T05:48:27;8.20;77.90
33865;DHT22;20159;51.072;13.526;2023-03-19T05:50:53;8.20;78.60
33865;DHT22;20159;51.072;13.526;2023-03-19T05:53:19;8.20;78.30
33865;DHT22;20159;51.072;13.526;2023-03-19T05:55:44;8.20;78.20
33865;DHT22;20159;51.072;13.526;2023-03-19T05:58:10;8.30;78.30
33865;DHT22;20159;51.072;13.526;2023-03-19T06:00:35;8.30;78.40
33865;DHT22;20159;51.072;13.526;2023-03-19T06:03:01;8.40;78.50
33865;DHT22;20159;51.072;13.526;2023-03-19T06:05:26;8.40;78.50
33865;DHT22;20159;51.072;13.526;2023-03-19T06:07:52;8.50;78.30
33865;DHT22;20159;51.072;13.526;2023-03-19T06:10:17;8.60;78.30
33865;DHT22;20159;51.072;13.526;2023-03-19T06:12:43;8.70;78.20
33865;DHT22;20159;51.072;13.526;2023-03-19T06:15:09;8.80;78.20
33865;DHT22;20159;51.072;13.526;2023-03-19T06:17:34;8.80;78.20
33865;DHT22;20159;51.072;13.526;2023-03-19T06:20:00;8.90;77.90
33865;DHT22;20159;51.072;13.526;2023-03-19T06:22:26;9.00;77.50
33865;DHT22;20159;51.072;13.526;2023-03-19T06:24:51;9.10;77.10
33865;DHT22;20159;51.072;13.526;2023-03-19T06:27:17;9.10;76.90
33865;DHT22;20159;51.072;13.526;2023-03-19T06:29:42;9.30;77.10
33865;DHT22;20159;51.072;13.526;2023-03-19T06:32:08;9.40;76.90
33865;DHT22;20159;51.072;13.526;2023-03-19T06:34:34;9.50;77.30
33865;DHT22;20159;51.072;13.526;2023-03-19T06:37:00;9.70;77.60
33865;DHT22;20159;51.072;13.526;2023-03-19T06:39:26;9.90;77.60
33865;DHT22;20159;51.072;13.526;2023-03-19T06:41:52;10.10;77.60
33865;DHT22;20159;51.072;13.526;2023-03-19T06:44:17;10.40;77.80
33865;DHT22;20159;51.072;13.526;2023-03-19T06:46:43;10.70;78.20
33865;DHT22;20159;51.072;13.526;2023-03-19T06:49:09;11.00;78.20
33865;DHT22;20159;51.072;13.526;2023-03-19T06:51:34;11.40;76.60
33865;DHT22;20159;51.072;13.526;2023-03-19T06:54:00;11.80;76.20
33865;DHT22;20159;51.072;13.526;2023-03-19T06:56:26;12.10;74.90
33865;DHT22;20159;51.072;13.526;2023-03-19T06:58:51;12.40;73.50
33865;DHT22;20159;51.072;13.526;2023-03-19T07:01:17;12.60;72.10
33865;DHT22;20159;51.072;13.526;2023-03-19T07:03:43;12.80;72.00
33865;DHT22;20159;51.072;13.526;2023-03-19T07:06:09;13.00;73.00
33865;DHT22;20159;51.072;13.526;2023-03-19T07:08:35;13.20;71.20
33865;DHT22;20159;51.072;13.526;2023-03-19T07:11:06;13.50;71.50
33865;DHT22;20159;51.072;13.526;2023-03-19T07:13:33;13.80;70.60
33865;DHT22;20159;51.072;13.526;2023-03-19T07:15:59;14.10;71.90
33865;DHT22;20159;51.072;13.526;2023-03-19T07:18:24;14.30;69.60
33865;DHT22;20159;51.072;13.526;2023-03-19T07:20:50;14.70;69.50
33865;DHT22;20159;51.072;13.526;2023-03-19T07:23:17;15.00;68.60
33865;DHT22;20159;51.072;13.526;2023-03-19T07:25:43;15.20;68.20
33865;DHT22;20159;51.072;13.526;2023-03-19T07:28:08;15.50;67.20
33865;DHT22;20159;51.072;13.526;2023-03-19T07:30:34;15.80;66.90
33865;DHT22;20159;51.072;13.526;2023-03-19T07:33:00;16.00;65.60
33865;DHT22;20159;51.072;13.526;2023-03-19T07:35:25;16.00;64.10
33865;DHT22;20159;51.072;13.526;2023-03-19T07:37:51;16.30;63.80
33865;DHT22;20159;51.072;13.526;2023-03-19T07:40:16;16.40;62.80
33865;DHT22;20159;51.072;13.526;2023-03-19T07:42:42;16.50;62.30
33865;DHT22;20159;51.072;13.526;2023-03-19T07:45:08;16.60;62.80
33865;DHT22;20159;51.072;13.526;2023-03-19T07:47:33;16.70;62.30
33865;DHT22;20159;51.072;13.526;2023-03-19T07:49:59;16.70;62.70
33865;DHT22;20159;51.072;13.526;2023-03-19T07:52:25;16.80;61.20
33865;DHT22;20159;51.072;13.526;2023-03-19T07:54:51;16.90;61.00
33865;DHT22;20159;51.072;13.526;2023-03-19T07:57:17;17.10;61.50
33865;DHT22;20159;51.072;13.526;2023-03-19T07:59:43;17.20;61.50
33865;DHT22;20159;51.072;13.526;2023-03-19T08:02:10;17.20;60.50
33865;DHT22;20159;51.072;13.526;2023-03-19T08:04:36;17.40;60.10
33865;DHT22;20159;51.072;13.526;2023-03-19T08:07:01;17.40;59.50
33865;DHT22;20159;51.072;13.526;2023-03-19T08:09:27;17.50;60.50
33865;DHT22;20159;51.072;13.526;2023-03-19T08:11:52;17.60;59.90
33865;DHT22;20159;51.072;13.526;2023-03-19T08:14:18;17.80;61.20
33865;DHT22;20159;51.072;13.526;2023-03-19T08:16:47;18.00;59.90
33865;DHT22;20159;51.072;13.526;2023-03-19T08:19:16;18.20;59.60
33865;DHT22;20159;51.072;13.526;2023-03-19T08:21:50;18.30;59.20
33865;DHT22;20159;51.072;13.526;2023-03-19T08:24:16;18.50;57.30
33865;DHT22;20159;51.072;13.526;2023-03-19T08:26:43;18.70;57.90
33865;DHT22;20159;51.072;13.526;2023-03-19T08:29:11;18.80;56.60
33865;DHT22;20159;51.072;13.526;2023-03-19T08:31:37;18.90;56.60
33865;DHT22;20159;51.072;13.526;2023-03-19T08:34:13;19.00;56.80
33865;DHT22;20159;51.072;13.526;2023-03-19T08:36:38;19.20;57.90
33865;DHT22;20159;51.072;13.526;2023-03-19T08:39:13;19.30;56.40
33865;DHT22;20159;51.072;13.526;2023-03-19T08:41:39;19.50;55.70
33865;DHT22;20159;51.072;13.526;2023-03-19T08:44:07;19.60;55.40
33865;DHT22;20159;51.072;13.526;2023-03-19T08:46:32;19.70;55.60
33865;DHT22;20159;51.072;13.526;2023-03-19T08:48:59;19.80;53.90
33865;DHT22;20159;51.072;13.526;2023-03-19T08:51:25;19.80;53.80
33865;DHT22;20159;51.072;13.526;2023-03-19T08:53:52;19.90;54.10
33865;DHT22;20159;51.072;13.526;2023-03-19T08:56:17;20.00;54.00
33865;DHT22;20159;51.072;13.526;2023-03-19T08:58:43;20.10;54.40
33865;DHT22;20159;51.072;13.526;2023-03-19T09:01:11;20.20;53.40
33865;DHT22;20159;51.072;13.526;2023-03-19T09:03:40;20.20;52.90
33865;DHT22;20159;51.072;13.526;2023-03-19T09:06:08;20.40;53.60
33865;DHT22;20159;51.072;13.526;2023-03-19T09:08:34;20.50;53.70
33865;DHT22;20159;51.072;13.526;2023-03-19T09:11:01;20.70;54.70
33865;DHT22;20159;51.072;13.526;2023-03-19T09:13:27;20.80;52.60
33865;DHT22;20159;51.072;13.526;2023-03-19T09:15:52;20.90;52.70
33865;DHT22;20159;51.072;13.526;2023-03-19T09:18:18;21.00;52.40
33865;DHT22;20159;51.072;13.526;2023-03-19T09:20:50;21.20;52.30
33865;DHT22;20159;51.072;13.526;2023-03-19T09:23:15;21.30;52.40
33865;DHT22;20159;51.072;13.526;2023-03-19T09:25:41;21.50;51.70
33865;DHT22;20159;51.072;13.526;2023-03-19T09:28:07;21.70;52.00
33865;DHT22;20159;51.072;13.526;2023-03-19T09:30:32;21.90;51.80
33865;DHT22;20159;51.072;13.526;2023-03-19T09:32:58;22.20;51.80
33865;DHT22;20159;51.072;13.526;2023-03-19T09:35:23;22.50;51.50
33865;DHT22;20159;51.072;13.526;2023-03-19T09:37:50;22.80;50.30
33865;DHT22;20159;51.072;13.526;2023-03-19T09:40:26;23.10;50.50
33865;DHT22;20159;51.072;13.526;2023-03-19T09:45:31;23.60;49.20
33865;DHT22;20159;51.072;13.526;2023-03-19T09:48:02;23.90;49.30
33865;DHT22;20159;51.072;13.526;2023-03-19T09:50:31;24.10;48.10
33865;DHT22;20159;51.072;13.526;2023-03-19T09:53:20;24.30;48.00
33865;DHT22;20159;51.072;13.526;2023-03-19T09:55:50;24.60;47.90
33865;DHT22;20159;51.072;13.526;2023-03-19T09:58:22;24.80;47.50
33865;DHT22;20159;51.072;13.526;2023-03-19T10:00:51;24.90;47.00
33865;DHT22;20159;51.072;13.526;2023-03-19T10:03:26;25.10;46.00
33865;DHT22;20159;51.072;13.526;2023-03-19T10:17:01;25.60;45.50
33865;DHT22;20159;51.072;13.526;2023-03-19T10:19:46;25.60;45.10
33865;DHT22;20159;51.072;13.526;2023-03-19T10:22:49;25.60;44.50
33865;DHT22;20159;51.072;13.526;2023-03-19T10:25:22;25.70;45.30
33865;DHT22;20159;51.072;13.526;2023-03-19T10:27:58;25.80;45.00
33865;DHT22;20159;51.072;13.526;2023-03-19T10:30:24;26.00;45.90
33865;DHT22;20159;51.072;13.526;2023-03-19T10:32:58;26.10;45.80
33865;DHT22;20159;51.072;13.526;2023-03-19T10:35:38;26.30;45.00
33865;DHT22;20159;51.072;13.526;2023-03-19T10:38:23;26.50;43.70
33865;DHT22;20159;51.072;13.526;2023-03-19T10:41:15;26.50;43.90
33865;DHT22;20159;51.072;13.526;2023-03-19T10:43:53;26.70;43.90
33865;DHT22;20159;51.072;13.526;2023-03-19T10:46:19;26.80;42.90
33865;DHT22;20159;51.072;13.526;2023-03-19T10:48:46;26.90;44.10
33865;DHT22;20159;51.072;13.526;2023-03-19T10:51:14;27.00;43.20
33865;DHT22;20159;51.072;13.526;2023-03-19T10:53:41;27.10;43.40
33865;DHT22;20159;51.072;13.526;2023-03-19T10:56:21;27.20;43.20
33865;DHT22;20159;51.072;13.526;2023-03-19T10:59:05;27.30;43.20
33865;DHT22;20159;51.072;13.526;2023-03-19T11:01:39;27.30;41.90
33865;DHT22;20159;51.072;13.526;2023-03-19T11:04:16;27.40;42.30
33865;DHT22;20159;51.072;13.526;2023-03-19T11:06:51;27.30;41.50
33865;DHT22;20159;51.072;13.526;2023-03-19T11:09:22;27.30;41.10
33865;DHT22;20159;51.072;13.526;2023-03-19T11:11:52;27.20;43.50
33865;DHT22;20159;51.072;13.526;2023-03-19T11:14:28;27.20;41.70
33865;DHT22;20159;51.072;13.526;2023-03-19T11:16:58;27.10;41.10
33865;DHT22;20159;51.072;13.526;2023-03-19T11:19:29;27.00;41.20
33865;DHT22;20159;51.072;13.526;2023-03-19T11:22:11;26.80;40.60
33865;DHT22;20159;51.072;13.526;2023-03-19T11:24:41;26.70;40.60
33865;DHT22;20159;51.072;13.526;2023-03-19T11:27:08;26.60;40.50
33865;DHT22;20159;51.072;13.526;2023-03-19T11:29:40;26.40;40.30
33865;DHT22;20159;51.072;13.526;2023-03-19T11:34:55;26.00;40.50
33865;DHT22;20159;51.072;13.526;2023-03-19T11:37:53;25.90;40.50
33865;DHT22;20159;51.072;13.526;2023-03-19T11:43:45;25.60;41.10
33865;DHT22;20159;51.072;13.526;2023-03-19T11:46:33;25.50;41.50
33865;DHT22;20159;51.072;13.526;2023-03-19T11:49:14;25.40;42.20
33865;DHT22;20159;51.072;13.526;2023-03-19T11:51:52;25.30;42.80
33865;DHT22;20159;51.072;13.526;2023-03-19T11:54:49;25.40;42.40
33865;DHT22;20159;51.072;13.526;2023-03-19T12:00:41;25.50;42.10
33865;DHT22;20159;51.072;13.526;2023-03-19T12:06:26;25.60;42.10
33865;DHT22;20159;51.072;13.526;2023-03-19T12:12:06;25.60;42.10
33865;DHT22;20159;51.072;13.526;2023-03-19T12:17:36;25.50;40.90
33865;DHT22;20159;51.072;13.526;2023-03-19T12:20:25;25.50;41.90
33865;DHT22;20159;51.072;13.526;2023-03-19T12:23:16;25.40;41.80
33865;DHT22;20159;51.072;13.526;2023-03-19T12:25:51;25.30;41.90
33865;DHT22;20159;51.072;13.526;2023-03-19T12:28:39;25.30;41.30
33865;DHT22;20159;51.072;13.526;2023-03-19T12:31:38;25.20;41.30
33865;DHT22;20159;51.072;13.526;2023-03-19T12:34:28;25.20;41.20
33865;DHT22;20159;51.072;13.526;2023-03-19T12:37:19;25.00;41.30
33865;DHT22;20159;51.072;13.526;2023-03-19T12:39:56;25.00;41.30
33865;DHT22;20159;51.072;13.526;2023-03-19T12:42:29;25.00;41.20
33865;DHT22;20159;51.072;13.526;2023-03-19T12:44:58;24.90;41.40
33865;DHT22;20159;51.072;13.526;2023-03-19T12:47:28;24.90;41.80
33865;DHT22;20159;51.072;13.526;2023-03-19T12:50:08;24.90;41.30
33865;DHT22;20159;51.072;13.526;2023-03-19T12:52:48;24.80;41.30
33865;DHT22;20159;51.072;13.526;2023-03-19T12:55:42;24.80;41.50
33865;DHT22;20159;51.072;13.526;2023-03-19T13:00:59;24.70;41.80
33865;DHT22;20159;51.072;13.526;2023-03-19T13:03:42;24.70;42.60
33865;DHT22;20159;51.072;13.526;2023-03-19T13:06:15;24.70;42.80
33865;DHT22;20159;51.072;13.526;2023-03-19T13:11:32;24.60;43.00
33865;DHT22;20159;51.072;13.526;2023-03-19T13:14:05;24.60;43.50
33865;DHT22;20159;51.072;13.526;2023-03-19T13:21:46;24.40;43.10
33865;DHT22;20159;51.072;13.526;2023-03-19T13:24:22;25.60;44.70
33865;DHT22;20159;51.072;13.526;2023-03-19T13:26:50;24.40;44.30
33865;DHT22;20159;51.072;13.526;2023-03-19T13:29:26;24.40;44.10
33865;DHT22;20159;51.072;13.526;2023-03-19T13:31:58;24.40;44.30
33865;DHT22;20159;51.072;13.526;2023-03-19T13:34:25;24.30;44.40
33865;DHT22;20159;51.072;13.526;2023-03-19T13:37:00;24.20;45.10
33865;DHT22;20159;51.072;13.526;2023-03-19T13:39:31;24.20;45.30
33865;DHT22;20159;51.072;13.526;2023-03-19T13:42:34;24.10;45.10
33865;DHT22;20159;51.072;13.526;2023-03-19T13:45:36;23.90;45.40
33865;DHT22;20159;51.072;13.526;2023-03-19T13:48:31;23.80;45.90
33865;DHT22;20159;51.072;13.526;2023-03-19T13:53:39;23.40;46.10
33865;DHT22;20159;51.072;13.526;2023-03-19T13:56:14;23.30;45.60
33865;DHT22;20159;51.072;13.526;2023-03-19T13:59:21;23.20;46.20
33865;DHT22;20159;51.072;13.526;2023-03-19T14:01:48;22.90;45.70
33865;DHT22;20159;51.072;13.526;2023-03-19T14:04:32;22.90;45.80
33865;DHT22;20159;51.072;13.526;2023-03-19T14:07:09;22.80;46.00
33865;DHT22;20159;51.072;13.526;2023-03-19T14:09:37;22.70;45.90
33865;DHT22;20159;51.072;13.526;2023-03-19T14:14:49;22.60;47.20
33865;DHT22;20159;51.072;13.526;2023-03-19T14:17:20;22.50;46.60
33865;DHT22;20159;51.072;13.526;2023-03-19T14:19:46;22.50;46.90
33865;DHT22;20159;51.072;13.526;2023-03-19T14:24:41;22.40;47.40
33865;DHT22;20159;51.072;13.526;2023-03-19T14:27:25;22.40;47.20
33865;DHT22;20159;51.072;13.526;2023-03-19T14:29:53;22.40;47.90
33865;DHT22;20159;51.072;13.526;2023-03-19T14:32:24;22.30;47.70
33865;DHT22;20159;51.072;13.526;2023-03-19T14:34:53;22.20;47.90
33865;DHT22;20159;51.072;13.526;2023-03-19T14:37:54;22.00;47.70
33865;DHT22;20159;51.072;13.526;2023-03-19T14:40:29;22.30;48.10
33865;DHT22;20159;51.072;13.526;2023-03-19T14:54:57;22.10;49.10
33865;DHT22;20159;51.072;13.526;2023-03-19T14:57:31;22.00;49.50
33865;DHT22;20159;51.072;13.526;2023-03-19T14:59:58;21.90;49.60
33865;DHT22;20159;51.072;13.526;2023-03-19T15:02:39;21.80;49.50
33865;DHT22;20159;51.072;13.526;2023-03-19T15:05:07;21.70;49.90
33865;DHT22;20159;51.072;13.526;2023-03-19T15:07:39;21.50;49.90
33865;DHT22;20159;51.072;13.526;2023-03-19T15:10:11;21.40;50.60
33865;DHT22;20159;51.072;13.526;2023-03-19T15:12:47;21.20;50.60
33865;DHT22;20159;51.072;13.526;2023-03-19T15:15:32;21.00;51.10
33865;DHT22;20159;51.072;13.526;2023-03-19T15:18:10;20.80;51.60
33865;DHT22;20159;51.072;13.526;2023-03-19T15:20:39;20.60;51.70
33865;DHT22;20159;51.072;13.526;2023-03-19T15:23:09;20.50;52.00
33865;DHT22;20159;51.072;13.526;2023-03-19T15:25:43;20.30;52.40
33865;DHT22;20159;51.072;13.526;2023-03-19T15:28:12;20.10;53.40
33865;DHT22;20159;51.072;13.526;2023-03-19T15:30:38;20.00;53.30
33865;DHT22;20159;51.072;13.526;2023-03-19T15:33:29;19.80;53.70
33865;DHT22;20159;51.072;13.526;2023-03-19T15:35:58;19.70;54.40
33865;DHT22;20159;51.072;13.526;2023-03-19T15:38:28;19.60;54.60
33865;DHT22;20159;51.072;13.526;2023-03-19T15:40:55;19.40;55.00
33865;DHT22;20159;51.072;13.526;2023-03-19T15:43:22;19.30;55.20
33865;DHT22;20159;51.072;13.526;2023-03-19T15:45:49;19.20;56.10
33865;DHT22;20159;51.072;13.526;2023-03-19T15:48:20;19.10;57.10
33865;DHT22;20159;51.072;13.526;2023-03-19T15:50:50;19.00;57.70
33865;DHT22;20159;51.072;13.526;2023-03-19T15:53:22;18.80;58.40
33865;DHT22;20159;51.072;13.526;2023-03-19T15:55:49;18.80;59.50
33865;DHT22;20159;51.072;13.526;2023-03-19T15:58:20;18.70;59.60
33865;DHT22;20159;51.072;13.526;2023-03-19T16:00:46;18.60;60.80
33865;DHT22;20159;51.072;13.526;2023-03-19T16:03:17;18.50;61.10
33865;DHT22;20159;51.072;13.526;2023-03-19T16:05:44;18.30;62.70
33865;DHT22;20159;51.072;13.526;2023-03-19T16:08:22;18.20;62.30
33865;DHT22;20159;51.072;13.526;2023-03-19T16:10:49;18.00;64.00
33865;DHT22;20159;51.072;13.526;2023-03-19T16:16:04;17.80;64.70
33865;DHT22;20159;51.072;13.526;2023-03-19T16:18:41;17.70;65.40
33865;DHT22;20159;51.072;13.526;2023-03-19T16:21:15;17.50;66.00
33865;DHT22;20159;51.072;13.526;2023-03-19T16:23:53;17.40;66.60
33865;DHT22;20159;51.072;13.526;2023-03-19T16:26:22;17.30;66.40
33865;DHT22;20159;51.072;13.526;2023-03-19T16:31:43;17.00;68.30
33865;DHT22;20159;51.072;13.526;2023-03-19T16:34:23;16.90;68.00
33865;DHT22;20159;51.072;13.526;2023-03-19T16:36:49;16.80;69.20
33865;DHT22;20159;51.072;13.526;2023-03-19T16:42:14;16.50;70.90
33865;DHT22;20159;51.072;13.526;2023-03-19T16:44:41;16.40;71.60
33865;DHT22;20159;51.072;13.526;2023-03-19T16:47:13;16.40;70.80
33865;DHT22;20159;51.072;13.526;2023-03-19T16:49:39;14.70;70.90